View Sortable Currents For Network
ASOSAWOSCoCoRaHSCOOPDCPISUSM
SchoolNetOtherSCANMy FavoritesBy StateRWIS
RWIS SurfaceRWIS TrafficRWIS SoilBy NWS WFO

Current AWOS Conditions

** This page will automatically refresh every five minutes.
Sorted by: (Station ID)     Click on a column to sort it.

Add Station: Ob Time   Wind [knots]   Rainfall
Temp (Hi / Lo) DewP Feels RH% Dir Speed Peak Gust
@ Time
Alti Vsby Hour Today
VINTON (VTI)10:20 AM 19(27/13) 9 8 64 310 823 @ 01:20 AM 30.24 10 0
Centerville (TVK)10:00 AM 23(27/14) 9 12 54 280 1025 @ 12:10 AM 30.29 10 0
NEWTON MUNI (TNU)10:15 AM 19(23/12) 9 7 64 300 1025 @ 12:35 AM 30.27 10 0
Storm Lake (SLB)10:15 AM 21(21/10) 16 10 81 270 919 @ 12:15 AM 30.21 10 0
SHELDON (SHL)10:15 AM 23(23/10) 18 11 81 220 1111 @ 10:15 AM 30.19 10 0
SHENANDOAH MUNI (SDA)10:15 AM 25(27/14) 18 74 15 @ 12:10 AM 30.35 10 0
RED OAK (RDK)10:15 AM 25(25/12) 16 16 68 320 722 @ 12:10 AM 30.32 10 0
Perry (PRO)10:05 AM 21(21/10) 11 12 65 300 622 @ 12:05 AM 30.29 10 0
PELLA (PEA)10:15 AM 22(25/14) 8 9 54 300 1221 @ 01:35 AM 30.29 10 0
Knoxville (OXV)10:15 AM 21(25/12) 7 9 54 290 1023 @ 12:00 AM 30.27 10 0
Orange City (ORC)10:15 AM 23(23/10) 21 14 92 220 79 @ 12:00 AM 30.2 10 0
Oskaloosa (OOA)10:15 AM 20(27/14) 8 6 59 310 1326 @ 12:05 AM 30.27 10 0
OELWEIN (OLZ)10:15 AM 16(21/10) 9 2 73 290 1126 @ 12:00 AM 30.21 10 0
MONTICELLO MUNI (MXO)10:15 AM 19(25/14) 9 5 64 300 1325 @ 12:50 AM 30.2 10 0
MUSCATINE (MUT)10:15 AM 21(30/16) 10 9 62 320 1030 @ 12:20 AM 30.26 10 0
MOUNT PLEASANT (MPZ)10:15 AM 22(29/16) 9 13 57 280 729 @ 12:30 AM 30.25 10 0
LE MARS (LRJ)10:15 AM 23(23/12) 18 15 81 210 614 @ 12:15 AM 30.24 10 0
ANKENY (IKV)10:15 AM 19(21/14) 9 7 64 290 926 @ 12:30 AM 30.29 10 0
INDEPENDENCE (IIB)10:15 AM 17(34/10) 8 3 67 300 1224 @ 01:00 AM 30.21 10 0
Iowa Falls (IFA)10:20 AM 18(22/10) 9 5 67 300 1021 @ 12:00 AM 30.26 10 0
CLARINDA (ICL)10:15 AM 25(27/12) 18 16 74 310 722 @ 12:15 AM 30.35 10 0
Osceola (I75)10:15 AM 23(24/13) 11 15 60 290 621 @ 12:35 AM 30.28 10 0
HARLAN (HNR)10:15 AM 23(23/12) 16 17 74 310 423 @ 12:15 AM 30.31 10 0
Grinnell (GGI)10:15 AM 19(25/12) 8 6 62 300 1121 @ 12:15 AM 30.26 10 0
Forest City (FXY)10:15 AM 18(19/10) 9 6 67 300 921 @ 12:55 AM 30.21 10 0
FORT MADISON (FSW)10:15 AM 21(30/18) 12 9 68 290 1130 @ 12:10 AM 30.25 10 0
FORT DODGE (FOD)09:56 AM 19(19/11) 11 7 71 290 910 @ 09:40 AM 30.25 10 0 0
FAIRFIELD (FFL)10:15 AM 21(30/16) 7 9 54 300 1127 @ 12:40 AM 30.25 10 0
KEOKUK MUNI (EOK)10:15 AM 23(34/19) 9 13 54 320 8G1424 @ 12:10 AM 30.25 10 0
Webster City (EBS)10:15 AM 19(19/9) 9 7 64 330 921 @ 12:45 AM 30.24 10 0
DENISON (DNS)10:15 AM 21(21/12) 16 12 81 220 613 @ 12:00 AM 30.27 10 0
DECORAH (DEH)10:15 AM 14(19/10) 5 4 67 310 624 @ 01:15 AM 30.16 10 0
CLINTON (CWI)09:56 AM 20(29/15) 12 5 71 310 1528 @ 12:00 AM 30.2 10 0
CRESTON (CSQ)10:15 AM 21(21/10) 14 10 74 310 927 @ 12:00 AM 30.3 10 0
CHARITON (CNC)10:15 AM 21(23/14) 10 10 62 300 919 @ 12:50 AM 30.27 10 0
Cherokee (CKP)10:15 AM 23(23/10) 18 17 81 250 48 @ 12:05 AM 30.23 10 0
CARROLL (CIN)10:15 AM 23(23/12) 14 16 68 519 @ 12:10 AM 30.26 10 0
CHARLES CITY (CCY)10:15 AM 16(19/10) 7 6 67 620 @ 12:15 AM 30.21 10 0
COUNCIL BLUFFS (CBF)10:15 AM 25(25/14) 19 19 78 310 420 @ 02:10 AM 30.3 10 0
CLARION (CAV)10:15 AM 18(18/9) 9 5 67 330 1121 @ 12:00 AM 30.24 10 0
BOONE MUNI (BNW)10:15 AM 19(19/12) 7 9 59 310 725 @ 12:00 AM 30.26 10 0
ALGONA (AXA)10:15 AM 21(21/9) 14 11 74 270 722 @ 02:00 AM 30.21 10 0
WASHINGTON (AWG)10:15 AM 21(27/16) 12 8 68 310 1233 @ 12:00 AM 30.27 10 0
ATLANTIC (AIO)10:15 AM 23(23/14) 14 15 68 300 617 @ 12:15 AM 30.29 10 0
AUDUBON (ADU)10:15 AM 23(23/14) 16 16 74 330 517 @ 12:00 AM 30.26 10 0
Plot (Plot / Plot) Plot Plot Plot Plot Plot Plot Plot Plot Plot